Time;durP1;ratioP1;P1;durP2;ratioP2;P2;SDS_P1;SDS_P2;PMS_P1;PMS_P2;Temp;Humidity;BMP_temperature;BMP_pressure;BME280_temperature;BME280_humidity;BME280_pressure;Samples;Min_cycle;Max_cycle;Signal;HPM_P1;HPM_P2
2020/12/02 00:01:32;;;;;;;;;;;17.20;43.40;;;;;;491649;240;1194;-52
2020/12/02 00:03:34;;;;;;;;;;;17.10;43.20;;;;;;491643;240;1203;-53
2020/12/02 00:05:35;;;;;;;;;;;17.20;43.20;;;;;;491605;240;1011;-52
2020/12/02 00:07:36;;;;;;;;;;;17.20;43.10;;;;;;491567;240;1351;-53
2020/12/02 00:09:37;;;;;;;;;;;17.20;43.10;;;;;;491588;240;1096;-53
2020/12/02 00:11:39;;;;;;;;;;;17.30;43.10;;;;;;491565;240;977;-53
2020/12/02 00:13:40;;;;;;;;;;;17.30;43.00;;;;;;491550;240;1274;-52
2020/12/02 00:15:41;;;;;;;;;;;17.30;43.00;;;;;;491571;240;2432;-52
2020/12/02 00:17:43;;;;;;;;;;;17.30;41.60;;;;;;491556;240;1316;-53
2020/12/02 00:19:44;;;;;;;;;;;17.30;42.90;;;;;;491570;240;1197;-53
2020/12/02 00:21:45;;;;;;;;;;;17.40;42.90;;;;;;491678;240;1235;-53
2020/12/02 00:23:47;;;;;;;;;;;17.40;42.80;;;;;;491621;240;1049;-52
2020/12/02 00:25:48;;;;;;;;;;;17.40;42.80;;;;;;491710;240;1021;-53
2020/12/02 00:27:49;;;;;;;;;;;17.40;42.70;;;;;;491616;240;1246;-52
2020/12/02 00:29:50;;;;;;;;;;;17.50;42.70;;;;;;491630;240;1140;-52
2020/12/02 00:31:52;;;;;;;;;;;17.50;42.70;;;;;;491577;240;1029;-52
2020/12/02 00:33:53;;;;;;;;;;;17.50;42.60;;;;;;491778;240;1186;-53
2020/12/02 00:35:54;;;;;;;;;;;17.50;42.60;;;;;;491806;240;2195;-53
2020/12/02 00:37:56;;;;;;;;;;;17.50;42.50;;;;;;491628;240;1123;-53
2020/12/02 00:39:57;;;;;;;;;;;17.60;42.50;;;;;;491679;240;1058;-52
2020/12/02 00:41:58;;;;;;;;;;;17.60;42.50;;;;;;491601;240;1187;-53
2020/12/02 00:43:59;;;;;;;;;;;17.60;42.50;;;;;;491719;240;1212;-52
2020/12/02 00:46:01;;;;;;;;;;;17.60;42.40;;;;;;491587;240;1263;-52
2020/12/02 00:48:02;;;;;;;;;;;17.60;42.40;;;;;;491632;240;1070;-53
2020/12/02 00:50:03;;;;;;;;;;;17.70;42.40;;;;;;491683;240;1302;-52
2020/12/02 00:52:04;;;;;;;;;;;17.70;42.30;;;;;;491508;240;1145;-53
2020/12/02 00:54:06;;;;;;;;;;;17.70;42.30;;;;;;491592;240;1191;-53
2020/12/02 00:56:07;;;;;;;;;;;17.70;42.20;;;;;;491556;240;2177;-53
2020/12/02 00:58:08;;;;;;;;;;;17.70;42.20;;;;;;491608;240;1033;-52
2020/12/02 01:00:10;;;;;;;;;;;17.80;42.20;;;;;;491626;240;1025;-53
2020/12/02 01:02:11;;;;;;;;;;;17.80;42.20;;;;;;491713;240;1300;-52
2020/12/02 01:04:12;;;;;;;;;;;17.80;42.20;;;;;;491731;240;1202;-52
2020/12/02 01:06:13;;;;;;;;;;;17.80;42.10;;;;;;491606;240;1071;-53
2020/12/02 01:08:15;;;;;;;;;;;17.80;42.10;;;;;;491608;240;1170;-53
2020/12/02 01:10:16;;;;;;;;;;;17.80;42.00;;;;;;491623;240;1061;-52
2020/12/02 01:12:17;;;;;;;;;;;17.90;42.10;;;;;;491539;240;1312;-53
2020/12/02 01:14:18;;;;;;;;;;;17.90;42.10;;;;;;491586;240;1091;-52
2020/12/02 01:16:20;;;;;;;;;;;17.90;42.00;;;;;;491644;240;2200;-52
2020/12/02 01:18:21;;;;;;;;;;;17.90;42.00;;;;;;491684;240;1154;-52
2020/12/02 01:20:22;;;;;;;;;;;17.90;42.00;;;;;;491591;240;1153;-53
2020/12/02 01:22:24;;;;;;;;;;;18.00;42.00;;;;;;491635;240;1057;-52
2020/12/02 01:24:25;;;;;;;;;;;18.00;42.00;;;;;;491584;240;1118;-52
2020/12/02 01:26:27;;;;;;;;;;;18.00;41.90;;;;;;491658;240;1065;-53
2020/12/02 01:28:28;;;;;;;;;;;18.00;41.90;;;;;;491641;240;1051;-52
2020/12/02 01:30:29;;;;;;;;;;;18.00;41.90;;;;;;491698;240;1239;-52
2020/12/02 01:32:30;;;;;;;;;;;18.00;41.90;;;;;;491802;240;1169;-53
2020/12/02 01:34:32;;;;;;;;;;;18.00;41.80;;;;;;491598;240;1303;-53
2020/12/02 01:36:33;;;;;;;;;;;18.00;41.80;;;;;;491549;240;2173;-52
2020/12/02 01:38:34;;;;;;;;;;;18.00;41.70;;;;;;491595;240;1124;-52
2020/12/02 01:40:36;;;;;;;;;;;18.00;41.80;;;;;;491576;240;1348;-53
2020/12/02 01:42:37;;;;;;;;;;;18.10;41.70;;;;;;491615;240;1030;-53
2020/12/02 01:44:38;;;;;;;;;;;18.10;41.80;;;;;;491610;240;1059;-52
2020/12/02 01:46:39;;;;;;;;;;;18.10;40.40;;;;;;491639;240;1125;-52
2020/12/02 01:48:41;;;;;;;;;;;18.10;41.70;;;;;;491571;240;1072;-52
2020/12/02 01:50:42;;;;;;;;;;;18.20;41.70;;;;;;491576;240;1289;-52
2020/12/02 01:52:43;;;;;;;;;;;18.10;41.60;;;;;;491595;240;1041;-53
2020/12/02 01:54:45;;;;;;;;;;;18.20;41.60;;;;;;491613;240;1036;-52
2020/12/02 01:56:46;;;;;;;;;;;18.20;41.60;;;;;;491560;240;2180;-53
2020/12/02 01:58:47;;;;;;;;;;;18.20;41.60;;;;;;491766;240;1130;-52
2020/12/02 02:00:48;;;;;;;;;;;18.20;41.50;;;;;;491557;240;1366;-53
2020/12/02 02:02:50;;;;;;;;;;;18.20;41.50;;;;;;491785;240;1042;-52
2020/12/02 02:04:51;;;;;;;;;;;18.20;41.50;;;;;;491549;240;1182;-53
2020/12/02 02:06:52;;;;;;;;;;;18.20;41.50;;;;;;491639;240;1078;-52
2020/12/02 02:08:53;;;;;;;;;;;18.20;41.50;;;;;;491727;240;986;-53
2020/12/02 02:10:55;;;;;;;;;;;18.30;41.50;;;;;;491601;240;1149;-52
2020/12/02 02:12:56;;;;;;;;;;;18.30;41.50;;;;;;491648;240;973;-53
2020/12/02 02:14:57;;;;;;;;;;;18.30;41.50;;;;;;491622;240;1326;-52
2020/12/02 02:16:59;;;;;;;;;;;18.30;41.40;;;;;;491514;240;2187;-52
2020/12/02 02:19:00;;;;;;;;;;;18.30;41.40;;;;;;491577;240;1230;-53
2020/12/02 02:21:01;;;;;;;;;;;18.30;41.40;;;;;;491552;240;1376;-53
2020/12/02 02:23:02;;;;;;;;;;;18.30;41.40;;;;;;491610;240;1414;-53
2020/12/02 02:25:04;;;;;;;;;;;18.30;41.40;;;;;;491701;240;1311;-52
2020/12/02 02:27:05;;;;;;;;;;;18.30;41.30;;;;;;491571;240;1157;-52
2020/12/02 02:29:06;;;;;;;;;;;18.30;41.30;;;;;;491628;240;1187;-52
2020/12/02 02:31:07;;;;;;;;;;;18.40;41.40;;;;;;491615;240;1405;-53
2020/12/02 02:33:09;;;;;;;;;;;18.40;41.40;;;;;;491592;240;1121;-53
2020/12/02 02:35:10;;;;;;;;;;;18.40;41.40;;;;;;491519;240;2183;-52
2020/12/02 02:37:11;;;;;;;;;;;18.40;41.30;;;;;;491618;240;1064;-53
2020/12/02 02:39:13;;;;;;;;;;;18.40;41.30;;;;;;491758;240;1231;-53
2020/12/02 02:41:14;;;;;;;;;;;18.40;41.20;;;;;;491783;240;1237;-53
2020/12/02 02:43:15;;;;;;;;;;;18.40;41.30;;;;;;491792;240;1036;-53
2020/12/02 02:45:16;;;;;;;;;;;18.40;41.20;;;;;;491706;240;1088;-53
2020/12/02 02:47:18;;;;;;;;;;;18.40;41.20;;;;;;491617;240;1070;-52
2020/12/02 02:49:19;;;;;;;;;;;18.40;41.20;;;;;;491598;240;1033;-52
2020/12/02 02:51:20;;;;;;;;;;;18.50;41.20;;;;;;491772;240;1164;-53
2020/12/02 02:53:22;;;;;;;;;;;18.50;41.20;;;;;;492000;240;1061;-52
2020/12/02 02:55:23;;;;;;;;;;;18.50;41.20;;;;;;491566;240;2188;-53
2020/12/02 02:57:24;;;;;;;;;;;18.50;41.20;;;;;;491668;240;1032;-53
2020/12/02 02:59:25;;;;;;;;;;;18.50;41.10;;;;;;491701;240;1147;-53
2020/12/02 03:01:27;;;;;;;;;;;18.50;41.20;;;;;;491842;240;1042;-52
2020/12/02 03:03:28;;;;;;;;;;;18.50;41.10;;;;;;491628;240;1053;-53
2020/12/02 03:05:30;;;;;;;;;;;18.50;41.10;;;;;;491840;240;1275;-52
2020/12/02 03:07:31;;;;;;;;;;;18.50;41.10;;;;;;491659;240;1178;-53
2020/12/02 03:09:32;;;;;;;;;;;18.50;41.10;;;;;;491677;240;1337;-53
2020/12/02 03:11:33;;;;;;;;;;;18.50;41.10;;;;;;491615;240;1077;-53
2020/12/02 03:13:35;;;;;;;;;;;18.60;41.20;;;;;;491955;240;1041;-52
2020/12/02 03:15:36;;;;;;;;;;;18.60;41.10;;;;;;491593;240;2192;-53
2020/12/02 03:17:37;;;;;;;;;;;18.60;41.10;;;;;;491658;240;1243;-53
2020/12/02 03:19:39;;;;;;;;;;;18.60;41.10;;;;;;491546;240;1157;-53
2020/12/02 03:21:40;;;;;;;;;;;18.60;41.00;;;;;;491724;240;1315;-53
2020/12/02 03:23:41;;;;;;;;;;;18.60;41.10;;;;;;491532;240;1341;-52
2020/12/02 03:25:43;;;;;;;;;;;18.60;41.00;;;;;;491578;240;1066;-53
2020/12/02 03:27:44;;;;;;;;;;;18.60;41.00;;;;;;491513;240;1288;-53
2020/12/02 03:29:45;;;;;;;;;;;18.60;41.00;;;;;;491542;240;1037;-52
2020/12/02 03:31:46;;;;;;;;;;;18.60;41.00;;;;;;491722;240;1051;-52
2020/12/02 03:33:48;;;;;;;;;;;18.60;41.00;;;;;;491621;240;1187;-53
2020/12/02 03:35:49;;;;;;;;;;;18.70;41.00;;;;;;491878;240;2195;-52
2020/12/02 03:37:50;;;;;;;;;;;18.70;41.00;;;;;;491593;240;1049;-52
2020/12/02 03:39:52;;;;;;;;;;;18.60;40.90;;;;;;491641;240;1187;-53
2020/12/02 03:41:53;;;;;;;;;;;18.70;41.00;;;;;;491593;240;1054;-52
2020/12/02 03:43:54;;;;;;;;;;;18.70;40.90;;;;;;491601;240;1070;-53
2020/12/02 03:45:55;;;;;;;;;;;18.70;40.90;;;;;;491649;240;1020;-53
2020/12/02 03:47:57;;;;;;;;;;;18.70;40.90;;;;;;491637;240;1246;-52
2020/12/02 03:49:58;;;;;;;;;;;18.70;40.90;;;;;;491598;240;1050;-53
2020/12/02 03:51:59;;;;;;;;;;;18.70;40.90;;;;;;491732;240;1227;-52
2020/12/02 03:54:00;;;;;;;;;;;18.70;40.90;;;;;;491596;240;1045;-53
2020/12/02 03:56:02;;;;;;;;;;;18.70;40.90;;;;;;491629;240;2200;-52
2020/12/02 03:58:03;;;;;;;;;;;18.70;40.80;;;;;;491596;240;988;-52
2020/12/02 04:00:04;;;;;;;;;;;18.70;40.80;;;;;;491647;240;1094;-52
2020/12/02 04:02:06;;;;;;;;;;;18.80;40.90;;;;;;491817;240;1371;-53
2020/12/02 04:04:07;;;;;;;;;;;18.70;40.80;;;;;;491641;240;1078;-53
2020/12/02 04:06:08;;;;;;;;;;;18.80;40.80;;;;;;491613;240;1282;-53
2020/12/02 04:08:09;;;;;;;;;;;18.80;40.90;;;;;;491600;240;1042;-53
2020/12/02 04:10:11;;;;;;;;;;;18.80;40.80;;;;;;491677;240;1063;-53
2020/12/02 04:12:12;;;;;;;;;;;18.80;40.80;;;;;;491595;240;1070;-52
2020/12/02 04:14:13;;;;;;;;;;;18.80;40.80;;;;;;491593;240;1054;-53
2020/12/02 04:16:14;;;;;;;;;;;18.80;40.80;;;;;;491567;240;2180;-52
2020/12/02 04:18:16;;;;;;;;;;;18.80;40.80;;;;;;491552;240;1135;-52
2020/12/02 04:20:18;;;;;;;;;;;18.80;40.80;;;;;;491672;240;1049;-53
2020/12/02 04:22:19;;;;;;;;;;;18.80;40.80;;;;;;491618;240;1209;-53
2020/12/02 04:24:20;;;;;;;;;;;18.80;40.70;;;;;;491557;240;1135;-52
2020/12/02 04:26:21;;;;;;;;;;;18.80;40.80;;;;;;491668;240;2385;-52
2020/12/02 04:28:22;;;;;;;;;;;18.80;40.70;;;;;;491601;240;1063;-52
2020/12/02 04:30:24;;;;;;;;;;;18.90;41.00;;;;;;491773;240;1072;-53
2020/12/02 04:32:25;;;;;;;;;;;18.90;40.70;;;;;;491592;240;1065;-53
2020/12/02 04:34:26;;;;;;;;;;;18.90;40.60;;;;;;491706;240;1084;-52
2020/12/02 04:36:27;;;;;;;;;;;18.90;40.60;;;;;;491587;240;2191;-52
2020/12/02 04:38:29;;;;;;;;;;;18.90;40.60;;;;;;491644;240;1088;-52
2020/12/02 04:40:30;;;;;;;;;;;18.90;40.80;;;;;;491969;240;1019;-52
2020/12/02 04:42:31;;;;;;;;;;;18.80;40.90;;;;;;491657;240;1092;-53
2020/12/02 04:44:33;;;;;;;;;;;18.70;39.70;;;;;;491617;240;1258;-52
2020/12/02 04:46:34;;;;;;;;;;;18.70;41.10;;;;;;491642;240;1119;-53
2020/12/02 04:48:35;;;;;;;;;;;18.60;41.10;;;;;;491707;240;1084;-52
2020/12/02 04:50:36;;;;;;;;;;;18.60;41.20;;;;;;491673;240;1112;-52
2020/12/02 04:52:38;;;;;;;;;;;18.50;41.30;;;;;;491543;240;1210;-52
2020/12/02 04:54:39;;;;;;;;;;;18.50;41.40;;;;;;491696;240;1343;-52
2020/12/02 04:56:40;;;;;;;;;;;18.40;41.50;;;;;;491542;240;2192;-52
2020/12/02 04:58:42;;;;;;;;;;;18.40;41.60;;;;;;491733;240;979;-52
2020/12/02 05:00:43;;;;;;;;;;;18.30;41.60;;;;;;491588;240;1091;-52
2020/12/02 05:02:44;;;;;;;;;;;18.30;41.70;;;;;;491626;240;1079;-52
2020/12/02 05:04:45;;;;;;;;;;;18.30;41.80;;;;;;491634;240;1098;-52
2020/12/02 05:06:47;;;;;;;;;;;18.20;41.80;;;;;;491547;240;1602;-53
2020/12/02 05:08:48;;;;;;;;;;;18.20;41.90;;;;;;491516;240;1140;-52
2020/12/02 05:10:50;;;;;;;;;;;18.20;42.00;;;;;;491482;240;1299;-53
2020/12/02 05:12:50;;;;;;;;;;;18.20;42.10;;;;;;491494;240;2277;-52
2020/12/02 05:14:52;;;;;;;;;;;18.10;42.10;;;;;;491515;240;1431;-52
2020/12/02 05:16:53;;;;;;;;;;;18.00;42.10;;;;;;491472;240;2191;-51
2020/12/02 05:18:54;;;;;;;;;;;18.00;42.20;;;;;;491551;240;1162;-53
2020/12/02 05:20:56;;;;;;;;;;;18.00;42.30;;;;;;491543;240;1102;-53
2020/12/02 05:22:57;;;;;;;;;;;18.00;42.30;;;;;;491546;240;1168;-52
2020/12/02 05:24:58;;;;;;;;;;;18.00;42.40;;;;;;491566;240;1268;-52
2020/12/02 05:26:59;;;;;;;;;;;17.90;42.30;;;;;;491554;240;1169;-52
2020/12/02 05:29:01;;;;;;;;;;;17.90;42.40;;;;;;491569;240;1185;-53
2020/12/02 05:31:02;;;;;;;;;;;17.90;42.50;;;;;;491533;240;1085;-53
2020/12/02 05:33:03;;;;;;;;;;;17.90;42.50;;;;;;491624;240;1299;-52
2020/12/02 05:35:04;;;;;;;;;;;17.80;42.50;;;;;;491533;240;1554;-52
2020/12/02 05:37:06;;;;;;;;;;;17.80;42.50;;;;;;491438;240;2221;-52
2020/12/02 05:39:07;;;;;;;;;;;17.80;42.60;;;;;;491495;240;1038;-53
2020/12/02 05:41:08;;;;;;;;;;;17.80;42.70;;;;;;491485;240;1183;-52
2020/12/02 05:43:10;;;;;;;;;;;17.70;42.60;;;;;;491482;240;1067;-52
2020/12/02 05:45:11;;;;;;;;;;;17.70;42.60;;;;;;491400;240;1051;-53
2020/12/02 05:47:12;;;;;;;;;;;17.70;42.70;;;;;;491398;240;1079;-52
2020/12/02 05:49:14;;;;;;;;;;;17.70;42.70;;;;;;491460;240;1057;-53
2020/12/02 05:51:15;;;;;;;;;;;17.70;42.70;;;;;;491462;240;1068;-52
2020/12/02 05:53:17;;;;;;;;;;;17.70;42.80;;;;;;491497;240;1205;-51
2020/12/02 05:55:18;;;;;;;;;;;17.60;41.50;;;;;;491616;240;1056;-52
2020/12/02 05:57:19;;;;;;;;;;;17.60;42.80;;;;;;491446;240;2172;-52
2020/12/02 05:59:22;;;;;;;;;;;17.60;42.80;;;;;;491532;240;1218;-52
2020/12/02 06:01:23;;;;;;;;;;;17.60;42.80;;;;;;491329;240;1197;-52
2020/12/02 06:03:24;;;;;;;;;;;17.60;42.90;;;;;;491417;240;1052;-52
2020/12/02 06:05:25;;;;;;;;;;;17.50;42.90;;;;;;491490;240;1084;-51
2020/12/02 06:07:26;;;;;;;;;;;17.50;42.90;;;;;;491316;240;1064;-52
2020/12/02 06:09:28;;;;;;;;;;;17.50;42.90;;;;;;491430;240;1106;-52
2020/12/02 06:11:29;;;;;;;;;;;17.50;42.90;;;;;;491422;240;1022;-52
2020/12/02 06:13:31;;;;;;;;;;;17.50;43.00;;;;;;491359;240;1124;-52
2020/12/02 06:15:32;;;;;;;;;;;17.50;43.00;;;;;;491380;240;1081;-52
2020/12/02 06:17:33;;;;;;;;;;;17.50;43.00;;;;;;491285;240;2188;-52
2020/12/02 06:19:35;;;;;;;;;;;17.40;41.70;;;;;;491290;240;1120;-52
2020/12/02 06:21:36;;;;;;;;;;;17.40;43.00;;;;;;491275;240;1114;-52
2020/12/02 06:23:37;;;;;;;;;;;17.50;43.10;;;;;;491507;240;1180;-52
2020/12/02 06:25:38;;;;;;;;;;;17.40;43.00;;;;;;491411;240;1063;-53
2020/12/02 06:27:40;;;;;;;;;;;17.40;43.00;;;;;;491304;240;1171;-53
2020/12/02 06:29:41;;;;;;;;;;;17.40;43.00;;;;;;491369;240;1228;-52
2020/12/02 06:31:42;;;;;;;;;;;17.40;43.10;;;;;;491362;240;1224;-52
2020/12/02 06:33:44;;;;;;;;;;;17.40;43.10;;;;;;491509;240;1109;-52
2020/12/02 06:35:45;;;;;;;;;;;17.40;43.10;;;;;;491376;240;1119;-52
2020/12/02 06:37:46;;;;;;;;;;;17.40;43.10;;;;;;491305;240;2196;-51
2020/12/02 06:39:47;;;;;;;;;;;17.40;43.10;;;;;;491298;240;1235;-52
2020/12/02 06:41:49;;;;;;;;;;;17.30;43.10;;;;;;491341;240;1051;-52
2020/12/02 06:43:50;;;;;;;;;;;17.30;43.10;;;;;;491405;240;1115;-52
2020/12/02 06:45:51;;;;;;;;;;;17.30;43.10;;;;;;491274;240;1226;-51
2020/12/02 06:47:52;;;;;;;;;;;17.30;43.10;;;;;;491323;240;1113;-52
2020/12/02 06:49:55;;;;;;;;;;;17.30;43.10;;;;;;491306;240;1170;-52
2020/12/02 06:51:56;;;;;;;;;;;17.30;43.20;;;;;;491176;240;2059;-53
2020/12/02 06:53:57;;;;;;;;;;;17.30;43.20;;;;;;491280;240;1232;-52
2020/12/02 06:55:58;;;;;;;;;;;17.30;43.20;;;;;;491273;240;1028;-52
2020/12/02 06:58:00;;;;;;;;;;;17.30;43.20;;;;;;491268;240;2176;-52
2020/12/02 07:00:02;;;;;;;;;;;17.20;41.90;;;;;;491194;240;1112;-53
2020/12/02 07:02:02;;;;;;;;;;;17.30;43.20;;;;;;491107;241;1483;-52
2020/12/02 07:04:03;;;;;;;;;;;17.20;43.20;;;;;;491102;240;1055;-53
2020/12/02 07:06:05;;;;;;;;;;;17.20;43.20;;;;;;491095;240;1047;-51
2020/12/02 07:08:06;;;;;;;;;;;17.20;43.20;;;;;;491028;240;1065;-52
2020/12/02 07:10:07;;;;;;;;;;;17.20;43.20;;;;;;491031;240;1220;-52
2020/12/02 07:12:08;;;;;;;;;;;17.20;43.20;;;;;;491004;240;1215;-52
2020/12/02 07:14:10;;;;;;;;;;;17.30;43.20;;;;;;491089;240;1236;-53
2020/12/02 07:16:11;;;;;;;;;;;17.30;43.10;;;;;;491088;240;1189;-53
2020/12/02 07:18:13;;;;;;;;;;;17.30;43.00;;;;;;491175;240;2412;-53
2020/12/02 07:20:14;;;;;;;;;;;17.30;42.90;;;;;;491222;240;1259;-52
2020/12/02 07:22:15;;;;;;;;;;;17.40;42.90;;;;;;491250;240;1219;-52
2020/12/02 07:24:17;;;;;;;;;;;17.40;42.80;;;;;;491098;240;1200;-53
2020/12/02 07:26:18;;;;;;;;;;;17.40;42.80;;;;;;491125;240;1057;-53
2020/12/02 07:28:19;;;;;;;;;;;17.50;41.40;;;;;;490923;240;1071;-52
2020/12/02 07:30:20;;;;;;;;;;;17.40;41.30;;;;;;490759;240;1147;-52
2020/12/02 07:32:22;;;;;;;;;;;17.50;42.70;;;;;;490962;240;1106;-52
2020/12/02 07:34:23;;;;;;;;;;;17.50;42.60;;;;;;491042;240;1067;-53
2020/12/02 07:36:26;;;;;;;;;;;17.50;42.60;;;;;;491103;240;1057;-52
2020/12/02 07:38:27;;;;;;;;;;;17.50;42.50;;;;;;490982;240;2241;-52
2020/12/02 07:40:30;;;;;;;;;;;17.50;42.40;;;;;;490961;240;1220;-53
2020/12/02 07:42:30;;;;;;;;;;;17.60;42.40;;;;;;491058;241;2326;-52
2020/12/02 07:44:31;;;;;;;;;;;17.60;42.40;;;;;;491123;240;1210;-52
2020/12/02 07:46:32;;;;;;;;;;;17.70;42.30;;;;;;490972;240;1284;-52
2020/12/02 07:48:34;;;;;;;;;;;17.60;42.20;;;;;;491077;240;1365;-53
2020/12/02 07:50:35;;;;;;;;;;;17.70;40.90;;;;;;490721;240;1089;-52
2020/12/02 07:52:37;;;;;;;;;;;17.70;40.80;;;;;;490803;240;1211;-53
2020/12/02 07:54:38;;;;;;;;;;;17.70;42.10;;;;;;490811;240;1202;-52
2020/12/02 07:56:39;;;;;;;;;;;17.80;42.10;;;;;;490851;240;1169;-53
2020/12/02 07:58:40;;;;;;;;;;;17.80;40.70;;;;;;490930;240;2177;-52
2020/12/02 08:00:43;;;;;;;;;;;17.80;42.00;;;;;;490883;240;1197;-53
2020/12/02 08:02:43;;;;;;;;;;;17.80;42.00;;;;;;490702;241;2346;-53
2020/12/02 08:04:45;;;;;;;;;;;17.90;42.00;;;;;;490857;240;1164;-53
2020/12/02 08:06:46;;;;;;;;;;;17.90;40.60;;;;;;490833;240;1320;-52
2020/12/02 08:08:47;;;;;;;;;;;17.90;41.90;;;;;;490990;240;1098;-52
2020/12/02 08:10:49;;;;;;;;;;;17.90;41.90;;;;;;490898;240;1189;-52
2020/12/02 08:12:50;;;;;;;;;;;17.90;41.80;;;;;;490886;240;1119;-53
2020/12/02 08:14:51;;;;;;;;;;;18.00;41.80;;;;;;490938;240;1164;-51
2020/12/02 08:16:54;;;;;;;;;;;18.00;41.80;;;;;;490976;240;1279;-52
2020/12/02 08:18:54;;;;;;;;;;;18.00;41.70;;;;;;490996;240;2269;-52
2020/12/02 08:20:55;;;;;;;;;;;18.00;41.70;;;;;;490944;240;1272;-53
2020/12/02 08:22:57;;;;;;;;;;;18.00;41.60;;;;;;491104;240;1225;-52
2020/12/02 08:24:58;;;;;;;;;;;18.10;41.70;;;;;;491046;240;1449;-52
2020/12/02 08:26:59;;;;;;;;;;;18.10;41.60;;;;;;491103;240;1181;-52
2020/12/02 08:29:00;;;;;;;;;;;18.10;41.60;;;;;;490883;240;1077;-53
2020/12/02 08:31:02;;;;;;;;;;;18.10;41.50;;;;;;490694;240;1202;-52
2020/12/02 08:33:03;;;;;;;;;;;18.10;41.50;;;;;;490898;240;1084;-52
2020/12/02 08:35:04;;;;;;;;;;;18.20;41.50;;;;;;491030;240;1083;-52
2020/12/02 08:37:06;;;;;;;;;;;18.20;41.40;;;;;;490892;240;1162;-52
2020/12/02 08:39:08;;;;;;;;;;;18.20;41.40;;;;;;490884;240;2199;-52
2020/12/02 08:41:08;;;;;;;;;;;18.20;40.10;;;;;;490755;240;2344;-52
2020/12/02 08:43:10;;;;;;;;;;;18.20;41.40;;;;;;490985;240;1057;-52
2020/12/02 08:45:11;;;;;;;;;;;18.20;41.30;;;;;;490923;240;1092;-52
2020/12/02 08:47:12;;;;;;;;;;;18.30;41.40;;;;;;490841;240;1113;-53
2020/12/02 08:49:14;;;;;;;;;;;18.30;41.30;;;;;;490803;240;1365;-52
2020/12/02 08:51:15;;;;;;;;;;;18.30;39.90;;;;;;490737;240;1156;-53
2020/12/02 08:53:17;;;;;;;;;;;18.30;41.20;;;;;;490778;240;1059;-53
2020/12/02 08:55:18;;;;;;;;;;;18.30;41.20;;;;;;490955;240;1211;-52
2020/12/02 08:57:19;;;;;;;;;;;18.30;41.20;;;;;;490902;240;2199;-53
2020/12/02 08:59:20;;;;;;;;;;;18.40;41.20;;;;;;490829;240;1146;-53
2020/12/02 09:01:22;;;;;;;;;;;18.40;41.20;;;;;;490690;240;1295;-53
2020/12/02 09:03:23;;;;;;;;;;;18.40;41.20;;;;;;490911;240;1318;-52
2020/12/02 09:05:25;;;;;;;;;;;18.40;41.10;;;;;;490937;240;1089;-53
2020/12/02 09:07:26;;;;;;;;;;;18.40;41.10;;;;;;490901;240;1280;-52
2020/12/02 09:09:27;;;;;;;;;;;18.50;41.10;;;;;;490967;240;1081;-53
2020/12/02 09:11:28;;;;;;;;;;;18.50;39.70;;;;;;491026;240;1372;-53
2020/12/02 09:13:30;;;;;;;;;;;18.50;41.10;;;;;;490882;240;1326;-52
2020/12/02 09:15:31;;;;;;;;;;;18.50;41.00;;;;;;490818;240;1133;-53
2020/12/02 09:17:33;;;;;;;;;;;18.50;39.70;;;;;;490913;240;2175;-53
2020/12/02 09:19:34;;;;;;;;;;;18.50;41.00;;;;;;490806;240;1115;-53
2020/12/02 09:21:35;;;;;;;;;;;18.50;39.70;;;;;;490935;240;1151;-53
2020/12/02 09:23:36;;;;;;;;;;;18.50;40.90;;;;;;491084;240;1151;-52
2020/12/02 09:25:38;;;;;;;;;;;18.60;39.60;;;;;;490940;240;1208;-52
2020/12/02 09:27:39;;;;;;;;;;;18.60;40.90;;;;;;491375;240;1097;-53
2020/12/02 09:29:40;;;;;;;;;;;18.60;39.60;;;;;;490723;240;1053;-53
2020/12/02 09:31:42;;;;;;;;;;;18.60;40.90;;;;;;490634;240;1261;-53
2020/12/02 09:33:43;;;;;;;;;;;18.60;40.90;;;;;;490800;240;1137;-53
2020/12/02 09:35:44;;;;;;;;;;;18.70;40.90;;;;;;490884;240;1073;-52
2020/12/02 09:37:45;;;;;;;;;;;18.70;41.00;;;;;;490849;240;2176;-53
2020/12/02 09:39:47;;;;;;;;;;;18.70;40.70;;;;;;490751;240;1137;-53
2020/12/02 09:41:48;;;;;;;;;;;18.80;39.20;;;;;;490673;240;1938;-52
2020/12/02 09:43:50;;;;;;;;;;;18.80;40.50;;;;;;491008;240;1057;-53
2020/12/02 09:45:51;;;;;;;;;;;18.80;40.60;;;;;;490928;240;1404;-52
2020/12/02 09:47:52;;;;;;;;;;;18.80;40.60;;;;;;490966;240;1524;-52
2020/12/02 09:49:53;;;;;;;;;;;18.70;40.70;;;;;;490926;240;1232;-53
2020/12/02 09:51:55;;;;;;;;;;;18.70;40.80;;;;;;490917;240;1086;-52
2020/12/02 09:53:56;;;;;;;;;;;18.70;40.90;;;;;;490878;240;1188;-53
2020/12/02 09:55:57;;;;;;;;;;;18.60;40.90;;;;;;490922;240;1139;-52
2020/12/02 09:57:59;;;;;;;;;;;18.60;41.00;;;;;;490965;240;2207;-51
2020/12/02 10:00:00;;;;;;;;;;;18.50;41.10;;;;;;490909;240;1170;-52
2020/12/02 10:02:01;;;;;;;;;;;18.50;41.10;;;;;;490937;240;1126;-52
2020/12/02 10:04:02;;;;;;;;;;;18.50;41.20;;;;;;490788;240;1148;-52
2020/12/02 10:06:04;;;;;;;;;;;18.40;40.00;;;;;;490799;240;1060;-52
2020/12/02 10:08:05;;;;;;;;;;;18.40;41.30;;;;;;490746;240;1065;-52
2020/12/02 10:10:07;;;;;;;;;;;18.30;41.30;;;;;;490833;240;1074;-52
2020/12/02 10:12:08;;;;;;;;;;;18.30;41.40;;;;;;490936;240;1183;-53
2020/12/02 10:14:09;;;;;;;;;;;18.30;41.50;;;;;;490816;240;1290;-52
2020/12/02 10:16:10;;;;;;;;;;;18.30;41.50;;;;;;490768;240;1101;-52
2020/12/02 10:18:12;;;;;;;;;;;18.20;41.60;;;;;;491008;240;2243;-51
2020/12/02 10:20:13;;;;;;;;;;;18.20;40.40;;;;;;490953;240;1150;-52
2020/12/02 10:22:15;;;;;;;;;;;18.20;41.70;;;;;;490921;240;1139;-52
2020/12/02 10:24:17;;;;;;;;;;;18.20;41.80;;;;;;490826;240;1252;-52
2020/12/02 10:26:17;;;;;;;;;;;18.10;40.50;;;;;;490846;241;1905;-52
2020/12/02 10:28:18;;;;;;;;;;;18.10;41.80;;;;;;490765;240;1209;-52
2020/12/02 10:30:20;;;;;;;;;;;18.00;40.60;;;;;;490664;240;1123;-52
2020/12/02 10:32:21;;;;;;;;;;;18.00;41.90;;;;;;490750;240;1304;-52
2020/12/02 10:34:22;;;;;;;;;;;18.00;40.70;;;;;;490817;242;1205;-51
2020/12/02 10:36:24;;;;;;;;;;;18.00;42.00;;;;;;490892;240;1105;-52
2020/12/02 10:38:25;;;;;;;;;;;18.00;42.00;;;;;;490789;240;2198;-52
2020/12/02 10:40:26;;;;;;;;;;;18.00;42.10;;;;;;490758;240;1093;-52
2020/12/02 10:42:27;;;;;;;;;;;17.90;42.00;;;;;;490728;240;1270;-52
2020/12/02 10:44:29;;;;;;;;;;;17.90;42.10;;;;;;490727;240;1248;-53
2020/12/02 10:46:30;;;;;;;;;;;17.90;42.10;;;;;;490694;240;1057;-52
2020/12/02 10:48:31;;;;;;;;;;;17.90;40.90;;;;;;490791;240;1131;-52
2020/12/02 10:50:32;;;;;;;;;;;17.90;42.20;;;;;;490800;240;1084;-52
2020/12/02 10:52:34;;;;;;;;;;;17.90;40.90;;;;;;490832;240;1073;-53
2020/12/02 10:54:35;;;;;;;;;;;17.80;42.20;;;;;;490982;240;1053;-52
2020/12/02 10:56:36;;;;;;;;;;;17.90;42.30;;;;;;491045;240;1123;-52
2020/12/02 10:58:38;;;;;;;;;;;17.80;42.30;;;;;;490851;240;2195;-52
2020/12/02 11:00:39;;;;;;;;;;;17.80;42.30;;;;;;490788;240;1151;-52
2020/12/02 11:02:40;;;;;;;;;;;17.80;42.30;;;;;;490867;240;1085;-52
2020/12/02 11:04:41;;;;;;;;;;;17.80;42.30;;;;;;490950;241;1509;-51
2020/12/02 11:06:43;;;;;;;;;;;17.70;42.30;;;;;;490918;240;1163;-52
2020/12/02 11:08:44;;;;;;;;;;;17.70;41.10;;;;;;490813;240;1080;-52
2020/12/02 11:10:45;;;;;;;;;;;17.70;41.00;;;;;;490774;240;1407;-52
2020/12/02 11:12:46;;;;;;;;;;;17.70;42.40;;;;;;490869;240;1280;-52
2020/12/02 11:14:48;;;;;;;;;;;17.70;42.40;;;;;;491015;240;1635;-52
2020/12/02 11:16:49;;;;;;;;;;;17.70;42.40;;;;;;490931;240;1548;-52
2020/12/02 11:18:51;;;;;;;;;;;17.70;41.20;;;;;;490834;240;2175;-53
2020/12/02 11:20:52;;;;;;;;;;;17.70;42.50;;;;;;490848;240;2270;-52
2020/12/02 11:22:53;;;;;;;;;;;17.70;42.50;;;;;;490681;240;1156;-51
2020/12/02 11:24:54;;;;;;;;;;;17.60;42.40;;;;;;490944;240;1127;-53
2020/12/02 11:26:55;;;;;;;;;;;17.60;41.10;;;;;;490886;240;1268;-52
2020/12/02 11:28:57;;;;;;;;;;;17.60;41.20;;;;;;491002;240;1228;-52
2020/12/02 11:30:58;;;;;;;;;;;17.60;42.40;;;;;;490839;240;1319;-52
2020/12/02 11:33:00;;;;;;;;;;;17.60;42.40;;;;;;490775;240;1166;-52
2020/12/02 11:35:01;;;;;;;;;;;17.60;42.50;;;;;;490720;240;1303;-52
2020/12/02 11:37:02;;;;;;;;;;;17.60;42.50;;;;;;490791;240;1084;-53
2020/12/02 11:39:03;;;;;;;;;;;17.60;42.50;;;;;;490688;240;2200;-51
2020/12/02 11:41:05;;;;;;;;;;;17.60;42.60;;;;;;491081;240;1120;-52
2020/12/02 11:43:06;;;;;;;;;;;17.50;42.50;;;;;;490736;240;1320;-51
2020/12/02 11:45:07;;;;;;;;;;;17.60;42.60;;;;;;491060;240;1256;-53
2020/12/02 11:47:09;;;;;;;;;;;17.60;42.60;;;;;;490851;240;1330;-52
2020/12/02 11:49:10;;;;;;;;;;;17.50;41.20;;;;;;490905;240;1221;-52
2020/12/02 11:51:11;;;;;;;;;;;17.50;41.30;;;;;;490880;240;1072;-53
2020/12/02 11:53:12;;;;;;;;;;;17.50;42.50;;;;;;490897;240;1177;-52
2020/12/02 11:55:14;;;;;;;;;;;17.50;42.60;;;;;;490867;240;1173;-52
2020/12/02 11:57:15;;;;;;;;;;;17.50;41.30;;;;;;490731;240;1126;-52